sensor_id;sensor_type;location;lat;lon;timestamp;pressure;altitude;pressure_sealevel;temperature;humidity
51229;BME280;37304;52.216;6.874;2022-07-21T00:03:38;101476.66;;;19.98;100.00
51229;BME280;37304;52.216;6.874;2022-07-21T00:08:39;101493.50;;;19.96;100.00
51229;BME280;37304;52.216;6.874;2022-07-21T00:13:39;101505.47;;;19.82;100.00
51229;BME280;37304;52.216;6.874;2022-07-21T00:18:39;101506.78;;;19.73;100.00
51229;BME280;37304;52.216;6.874;2022-07-21T00:23:40;101514.41;;;19.79;100.00
51229;BME280;37304;52.216;6.874;2022-07-21T00:28:40;101515.09;;;19.64;100.00
51229;BME280;37304;52.216;6.874;2022-07-21T00:33:41;101522.50;;;19.56;100.00
51229;BME280;37304;52.216;6.874;2022-07-21T00:38:42;101499.06;;;19.69;100.00
51229;BME280;37304;52.216;6.874;2022-07-21T00:43:42;101493.31;;;19.40;100.00
51229;BME280;37304;52.216;6.874;2022-07-21T00:48:42;101508.63;;;19.50;100.00
51229;BME280;37304;52.216;6.874;2022-07-21T00:53:43;101503.34;;;19.50;100.00
51229;BME280;37304;52.216;6.874;2022-07-21T00:58:43;101497.16;;;19.52;100.00
51229;BME280;37304;52.216;6.874;2022-07-21T01:03:44;101495.00;;;19.41;100.00
51229;BME280;37304;52.216;6.874;2022-07-21T01:08:44;101492.69;;;19.33;100.00
51229;BME280;37304;52.216;6.874;2022-07-21T01:13:44;101483.72;;;19.37;100.00
51229;BME280;37304;52.216;6.874;2022-07-21T01:18:45;101481.38;;;19.31;100.00
51229;BME280;37304;52.216;6.874;2022-07-21T01:23:45;101475.56;;;19.23;100.00
51229;BME280;37304;52.216;6.874;2022-07-21T01:28:46;101469.66;;;19.17;100.00
51229;BME280;37304;52.216;6.874;2022-07-21T01:33:46;101475.91;;;19.15;100.00
51229;BME280;37304;52.216;6.874;2022-07-21T01:38:47;101476.03;;;19.12;100.00
51229;BME280;37304;52.216;6.874;2022-07-21T01:44:08;101471.91;;;19.06;100.00
51229;BME280;37304;52.216;6.874;2022-07-21T01:49:08;101482.09;;;19.14;100.00
51229;BME280;37304;52.216;6.874;2022-07-21T01:54:09;101490.47;;;19.03;100.00
51229;BME280;37304;52.216;6.874;2022-07-21T01:59:10;101486.25;;;19.19;100.00
51229;BME280;37304;52.216;6.874;2022-07-21T02:04:10;101478.78;;;19.09;100.00
51229;BME280;37304;52.216;6.874;2022-07-21T02:09:11;101486.25;;;18.99;100.00
51229;BME280;37304;52.216;6.874;2022-07-21T02:14:11;101484.94;;;19.09;100.00
51229;BME280;37304;52.216;6.874;2022-07-21T02:19:12;101483.28;;;19.06;100.00
51229;BME280;37304;52.216;6.874;2022-07-21T02:24:12;101488.88;;;18.99;100.00
51229;BME280;37304;52.216;6.874;2022-07-21T02:29:13;101481.44;;;18.86;100.00
51229;BME280;37304;52.216;6.874;2022-07-21T02:34:13;101481.50;;;18.85;100.00
51229;BME280;37304;52.216;6.874;2022-07-21T02:39:13;101479.66;;;18.87;100.00
51229;BME280;37304;52.216;6.874;2022-07-21T02:44:14;101466.69;;;18.82;100.00
51229;BME280;37304;52.216;6.874;2022-07-21T02:49:14;101457.41;;;18.73;100.00
51229;BME280;37304;52.216;6.874;2022-07-21T02:54:14;101465.72;;;18.62;100.00
51229;BME280;37304;52.216;6.874;2022-07-21T02:59:15;101461.63;;;18.55;100.00
51229;BME280;37304;52.216;6.874;2022-07-21T03:04:16;101454.13;;;18.46;100.00
51229;BME280;37304;52.216;6.874;2022-07-21T03:09:16;101442.94;;;18.41;100.00
51229;BME280;37304;52.216;6.874;2022-07-21T03:14:16;101450.44;;;18.28;100.00
51229;BME280;37304;52.216;6.874;2022-07-21T03:19:17;101463.31;;;18.36;100.00
51229;BME280;37304;52.216;6.874;2022-07-21T03:24:17;101468.31;;;18.19;100.00
51229;BME280;37304;52.216;6.874;2022-07-21T03:29:18;101464.31;;;18.09;100.00
51229;BME280;37304;52.216;6.874;2022-07-21T03:34:18;101466.03;;;18.10;100.00
51229;BME280;37304;52.216;6.874;2022-07-21T03:39:18;101473.50;;;17.97;100.00
51229;BME280;37304;52.216;6.874;2022-07-21T03:44:19;101477.50;;;18.08;100.00
51229;BME280;37304;52.216;6.874;2022-07-21T03:49:19;101481.34;;;17.99;100.00
51229;BME280;37304;52.216;6.874;2022-07-21T03:54:20;101487.44;;;17.99;100.00
51229;BME280;37304;52.216;6.874;2022-07-21T03:59:20;101492.19;;;17.89;100.00
51229;BME280;37304;52.216;6.874;2022-07-21T04:04:23;101490.47;;;17.88;100.00
51229;BME280;37304;52.216;6.874;2022-07-21T04:09:23;101488.00;;;17.84;100.00
51229;BME280;37304;52.216;6.874;2022-07-21T04:14:23;101476.50;;;17.86;100.00
51229;BME280;37304;52.216;6.874;2022-07-21T04:19:23;101465.25;;;17.83;100.00
51229;BME280;37304;52.216;6.874;2022-07-21T04:24:24;101459.91;;;17.86;100.00
51229;BME280;37304;52.216;6.874;2022-07-21T04:29:24;101458.81;;;17.92;100.00
51229;BME280;37304;52.216;6.874;2022-07-21T04:34:25;101453.72;;;17.87;100.00
51229;BME280;37304;52.216;6.874;2022-07-21T04:39:27;101442.97;;;17.93;100.00
51229;BME280;37304;52.216;6.874;2022-07-21T04:44:28;101442.81;;;17.98;100.00
51229;BME280;37304;52.216;6.874;2022-07-21T04:49:34;101446.03;;;18.06;100.00
51229;BME280;37304;52.216;6.874;2022-07-21T04:54:35;101447.09;;;18.00;100.00
51229;BME280;37304;52.216;6.874;2022-07-21T04:59:36;101439.97;;;18.04;100.00
51229;BME280;37304;52.216;6.874;2022-07-21T05:04:36;101443.03;;;18.15;100.00
51229;BME280;37304;52.216;6.874;2022-07-21T05:09:37;101441.13;;;18.19;100.00
51229;BME280;37304;52.216;6.874;2022-07-21T05:14:37;101430.00;;;18.34;100.00
51229;BME280;37304;52.216;6.874;2022-07-21T05:19:37;101426.03;;;18.24;100.00
51229;BME280;37304;52.216;6.874;2022-07-21T05:24:41;101416.22;;;18.28;100.00
51229;BME280;37304;52.216;6.874;2022-07-21T05:29:41;101406.75;;;18.24;100.00
51229;BME280;37304;52.216;6.874;2022-07-21T05:34:41;101408.03;;;18.36;100.00
51229;BME280;37304;52.216;6.874;2022-07-21T05:39:48;101415.44;;;18.48;100.00
51229;BME280;37304;52.216;6.874;2022-07-21T05:44:48;101418.25;;;18.43;100.00
51229;BME280;37304;52.216;6.874;2022-07-21T05:49:49;101433.44;;;18.37;100.00
51229;BME280;37304;52.216;6.874;2022-07-21T05:54:49;101438.75;;;18.35;100.00
51229;BME280;37304;52.216;6.874;2022-07-21T05:59:53;101433.47;;;18.57;100.00
51229;BME280;37304;52.216;6.874;2022-07-21T06:04:53;101427.53;;;18.74;100.00
51229;BME280;37304;52.216;6.874;2022-07-21T06:09:54;101442.78;;;18.66;100.00
51229;BME280;37304;52.216;6.874;2022-07-21T06:14:54;101455.41;;;18.58;100.00
51229;BME280;37304;52.216;6.874;2022-07-21T06:19:55;101464.75;;;18.65;100.00
51229;BME280;37304;52.216;6.874;2022-07-21T06:24:55;101453.25;;;18.88;100.00
51229;BME280;37304;52.216;6.874;2022-07-21T06:29:56;101452.94;;;18.96;100.00
51229;BME280;37304;52.216;6.874;2022-07-21T06:35:00;101446.38;;;19.06;100.00
51229;BME280;37304;52.216;6.874;2022-07-21T06:40:00;101440.66;;;19.17;100.00
51229;BME280;37304;52.216;6.874;2022-07-21T06:45:01;101428.16;;;19.23;100.00
51229;BME280;37304;52.216;6.874;2022-07-21T06:50:02;101418.00;;;19.13;100.00
51229;BME280;37304;52.216;6.874;2022-07-21T06:55:05;101414.00;;;19.25;100.00
51229;BME280;37304;52.216;6.874;2022-07-21T07:00:07;101411.75;;;19.16;100.00
51229;BME280;37304;52.216;6.874;2022-07-21T07:05:08;101413.78;;;19.30;100.00
51229;BME280;37304;52.216;6.874;2022-07-21T07:10:09;101415.56;;;19.48;100.00
51229;BME280;37304;52.216;6.874;2022-07-21T07:15:10;101413.59;;;19.54;100.00
51229;BME280;37304;52.216;6.874;2022-07-21T07:20:10;101416.31;;;19.71;100.00
51229;BME280;37304;52.216;6.874;2022-07-21T07:25:11;101412.03;;;19.88;100.00
51229;BME280;37304;52.216;6.874;2022-07-21T07:30:11;101410.72;;;19.98;100.00
51229;BME280;37304;52.216;6.874;2022-07-21T07:35:12;101420.09;;;19.85;100.00
51229;BME280;37304;52.216;6.874;2022-07-21T07:40:16;101415.66;;;19.85;100.00
51229;BME280;37304;52.216;6.874;2022-07-21T07:45:16;101418.78;;;19.95;100.00
51229;BME280;37304;52.216;6.874;2022-07-21T07:50:17;101418.25;;;19.87;100.00
51229;BME280;37304;52.216;6.874;2022-07-21T07:55:18;101426.00;;;19.71;100.00
51229;BME280;37304;52.216;6.874;2022-07-21T08:00:19;101431.13;;;19.95;100.00
51229;BME280;37304;52.216;6.874;2022-07-21T08:05:19;101429.59;;;19.89;100.00
51229;BME280;37304;52.216;6.874;2022-07-21T08:10:20;101433.91;;;19.91;100.00
51229;BME280;37304;52.216;6.874;2022-07-21T08:15:20;101430.66;;;19.85;100.00
51229;BME280;37304;52.216;6.874;2022-07-21T08:20:21;101431.63;;;19.82;100.00
51229;BME280;37304;52.216;6.874;2022-07-21T08:25:21;101430.28;;;19.73;100.00
51229;BME280;37304;52.216;6.874;2022-07-21T08:30:22;101438.22;;;19.73;100.00
51229;BME280;37304;52.216;6.874;2022-07-21T08:35:23;101437.44;;;19.50;100.00
51229;BME280;37304;52.216;6.874;2022-07-21T08:40:25;101446.84;;;19.37;100.00
51229;BME280;37304;52.216;6.874;2022-07-21T08:45:25;101454.56;;;19.42;100.00
51229;BME280;37304;52.216;6.874;2022-07-21T08:50:31;101454.41;;;19.45;100.00
51229;BME280;37304;52.216;6.874;2022-07-21T08:55:34;101446.16;;;19.53;100.00
51229;BME280;37304;52.216;6.874;2022-07-21T09:00:36;101445.00;;;19.39;100.00
51229;BME280;37304;52.216;6.874;2022-07-21T09:05:40;101443.72;;;19.48;100.00
51229;BME280;37304;52.216;6.874;2022-07-21T09:10:40;101443.75;;;19.67;100.00
51229;BME280;37304;52.216;6.874;2022-07-21T09:15:40;101434.84;;;19.70;100.00
51229;BME280;37304;52.216;6.874;2022-07-21T09:20:49;101439.91;;;19.74;100.00
51229;BME280;37304;52.216;6.874;2022-07-21T09:25:55;101433.78;;;19.74;100.00
51229;BME280;37304;52.216;6.874;2022-07-21T09:36:06;101429.19;;;19.98;100.00
51229;BME280;37304;52.216;6.874;2022-07-21T09:41:16;101417.91;;;20.68;100.00
51229;BME280;37304;52.216;6.874;2022-07-21T09:46:20;101411.16;;;21.15;100.00
51229;BME280;37304;52.216;6.874;2022-07-21T09:51:30;101412.19;;;21.29;100.00
51229;BME280;37304;52.216;6.874;2022-07-21T09:56:39;101409.50;;;21.64;100.00
51229;BME280;37304;52.216;6.874;2022-07-21T10:01:40;101407.06;;;22.56;100.00
51229;BME280;37304;52.216;6.874;2022-07-21T10:06:41;101404.63;;;23.70;100.00
51229;BME280;37304;52.216;6.874;2022-07-21T10:11:41;101416.63;;;24.18;100.00
51229;BME280;37304;52.216;6.874;2022-07-21T10:16:41;101412.34;;;24.83;97.41
51229;BME280;37304;52.216;6.874;2022-07-21T10:32:10;101424.09;;;23.83;93.64
51229;BME280;37304;52.216;6.874;2022-07-21T10:42:40;101421.59;;;23.53;94.97
51229;BME280;37304;52.216;6.874;2022-07-21T10:47:40;101423.28;;;24.10;96.23
51229;BME280;37304;52.216;6.874;2022-07-21T10:57:47;101416.97;;;23.84;94.05
51229;BME280;37304;52.216;6.874;2022-07-21T11:02:53;101416.44;;;23.64;92.98
51229;BME280;37304;52.216;6.874;2022-07-21T11:08:13;101420.69;;;23.81;95.49
51229;BME280;37304;52.216;6.874;2022-07-21T11:13:16;101422.25;;;23.27;97.08
51229;BME280;37304;52.216;6.874;2022-07-21T11:18:19;101417.13;;;23.68;99.62
51229;BME280;37304;52.216;6.874;2022-07-21T11:23:20;101417.38;;;23.92;96.45
51229;BME280;37304;52.216;6.874;2022-07-21T11:28:20;101423.56;;;23.78;96.94
51229;BME280;37304;52.216;6.874;2022-07-21T11:33:22;101425.97;;;23.96;98.13
51229;BME280;37304;52.216;6.874;2022-07-21T11:38:22;101422.25;;;23.56;98.29
51229;BME280;37304;52.216;6.874;2022-07-21T11:43:39;101422.63;;;23.36;99.40
51229;BME280;37304;52.216;6.874;2022-07-21T11:48:40;101424.91;;;22.52;100.00
51229;BME280;37304;52.216;6.874;2022-07-21T11:53:44;101424.69;;;22.08;100.00
51229;BME280;37304;52.216;6.874;2022-07-21T11:58:45;101419.88;;;22.47;100.00
51229;BME280;37304;52.216;6.874;2022-07-21T12:03:49;101410.19;;;22.62;100.00
51229;BME280;37304;52.216;6.874;2022-07-21T12:08:50;101411.91;;;22.78;100.00
51229;BME280;37304;52.216;6.874;2022-07-21T12:13:52;101409.25;;;22.63;100.00
51229;BME280;37304;52.216;6.874;2022-07-21T12:19:15;101408.91;;;22.23;100.00
51229;BME280;37304;52.216;6.874;2022-07-21T12:24:17;101424.19;;;22.02;100.00
51229;BME280;37304;52.216;6.874;2022-07-21T12:29:28;101418.28;;;21.80;100.00
51229;BME280;37304;52.216;6.874;2022-07-21T12:34:28;101435.19;;;21.78;100.00
51229;BME280;37304;52.216;6.874;2022-07-21T12:39:29;101450.44;;;21.39;100.00
51229;BME280;37304;52.216;6.874;2022-07-21T12:44:48;101450.53;;;21.37;100.00
51229;BME280;37304;52.216;6.874;2022-07-21T12:49:56;101458.75;;;21.49;100.00
51229;BME280;37304;52.216;6.874;2022-07-21T12:54:58;101457.56;;;21.55;100.00
51229;BME280;37304;52.216;6.874;2022-07-21T13:00:00;101459.06;;;21.43;100.00
51229;BME280;37304;52.216;6.874;2022-07-21T13:05:00;101458.69;;;21.33;100.00
51229;BME280;37304;52.216;6.874;2022-07-21T13:10:01;101462.53;;;21.27;100.00
51229;BME280;37304;52.216;6.874;2022-07-21T13:15:01;101445.56;;;21.14;100.00
51229;BME280;37304;52.216;6.874;2022-07-21T13:20:02;101449.94;;;20.97;100.00
51229;BME280;37304;52.216;6.874;2022-07-21T13:25:04;101456.06;;;21.15;100.00
51229;BME280;37304;52.216;6.874;2022-07-21T13:30:06;101444.13;;;21.08;100.00
51229;BME280;37304;52.216;6.874;2022-07-21T13:35:07;101448.16;;;20.98;100.00
51229;BME280;37304;52.216;6.874;2022-07-21T13:40:08;101450.09;;;21.12;100.00
51229;BME280;37304;52.216;6.874;2022-07-21T13:45:09;101460.53;;;21.66;100.00
51229;BME280;37304;52.216;6.874;2022-07-21T13:50:11;101446.53;;;21.80;100.00
51229;BME280;37304;52.216;6.874;2022-07-21T13:55:12;101449.84;;;21.67;100.00
51229;BME280;37304;52.216;6.874;2022-07-21T14:00:12;101444.97;;;21.60;100.00
51229;BME280;37304;52.216;6.874;2022-07-21T14:05:13;101436.63;;;21.67;100.00
51229;BME280;37304;52.216;6.874;2022-07-21T14:10:14;101439.34;;;21.82;100.00
51229;BME280;37304;52.216;6.874;2022-07-21T14:15:14;101437.06;;;22.24;100.00
51229;BME280;37304;52.216;6.874;2022-07-21T14:20:14;101435.25;;;22.40;100.00
51229;BME280;37304;52.216;6.874;2022-07-21T14:25:15;101436.53;;;22.33;100.00
51229;BME280;37304;52.216;6.874;2022-07-21T14:30:19;101443.13;;;22.10;100.00
51229;BME280;37304;52.216;6.874;2022-07-21T14:35:20;101439.19;;;22.49;100.00
51229;BME280;37304;52.216;6.874;2022-07-21T14:40:22;101438.06;;;22.37;100.00
51229;BME280;37304;52.216;6.874;2022-07-21T14:45:23;101442.94;;;22.45;100.00
51229;BME280;37304;52.216;6.874;2022-07-21T14:50:25;101445.94;;;22.55;100.00
51229;BME280;37304;52.216;6.874;2022-07-21T14:55:27;101449.97;;;22.77;100.00
51229;BME280;37304;52.216;6.874;2022-07-21T15:00:28;101443.59;;;22.65;100.00
51229;BME280;37304;52.216;6.874;2022-07-21T15:05:28;101445.16;;;22.53;100.00
51229;BME280;37304;52.216;6.874;2022-07-21T15:10:29;101451.81;;;22.60;100.00
51229;BME280;37304;52.216;6.874;2022-07-21T15:15:29;101444.03;;;22.57;100.00
51229;BME280;37304;52.216;6.874;2022-07-21T15:20:29;101443.47;;;22.52;100.00
51229;BME280;37304;52.216;6.874;2022-07-21T15:25:30;101450.91;;;22.29;100.00
51229;BME280;37304;52.216;6.874;2022-07-21T15:30:30;101441.50;;;22.23;100.00
51229;BME280;37304;52.216;6.874;2022-07-21T15:35:30;101444.06;;;22.09;100.00
51229;BME280;37304;52.216;6.874;2022-07-21T15:40:31;101443.56;;;22.02;100.00
51229;BME280;37304;52.216;6.874;2022-07-21T15:45:32;101442.63;;;22.03;100.00
51229;BME280;37304;52.216;6.874;2022-07-21T15:50:32;101447.91;;;22.03;100.00
51229;BME280;37304;52.216;6.874;2022-07-21T15:55:33;101447.91;;;22.03;100.00
51229;BME280;37304;52.216;6.874;2022-07-21T16:00:33;101450.13;;;21.95;100.00
51229;BME280;37304;52.216;6.874;2022-07-21T16:05:34;101457.81;;;21.84;100.00
51229;BME280;37304;52.216;6.874;2022-07-21T16:10:34;101455.06;;;21.69;100.00
51229;BME280;37304;52.216;6.874;2022-07-21T16:15:34;101460.59;;;21.64;100.00
51229;BME280;37304;52.216;6.874;2022-07-21T16:20:35;101465.19;;;21.61;100.00
51229;BME280;37304;52.216;6.874;2022-07-21T16:25:35;101463.03;;;21.34;100.00
51229;BME280;37304;52.216;6.874;2022-07-21T16:30:36;101459.97;;;21.08;100.00
51229;BME280;37304;52.216;6.874;2022-07-21T16:35:36;101457.31;;;21.08;100.00
51229;BME280;37304;52.216;6.874;2022-07-21T16:40:36;101465.94;;;21.12;100.00
51229;BME280;37304;52.216;6.874;2022-07-21T16:45:37;101466.97;;;21.09;100.00
51229;BME280;37304;52.216;6.874;2022-07-21T16:50:37;101468.22;;;21.02;100.00
51229;BME280;37304;52.216;6.874;2022-07-21T16:55:38;101473.63;;;20.81;100.00
51229;BME280;37304;52.216;6.874;2022-07-21T17:00:38;101479.88;;;20.98;100.00
51229;BME280;37304;52.216;6.874;2022-07-21T17:05:38;101483.44;;;20.97;100.00
51229;BME280;37304;52.216;6.874;2022-07-21T17:10:39;101484.59;;;20.91;100.00
51229;BME280;37304;52.216;6.874;2022-07-21T17:15:39;101477.19;;;20.80;100.00
51229;BME280;37304;52.216;6.874;2022-07-21T17:20:40;101484.09;;;20.65;100.00
51229;BME280;37304;52.216;6.874;2022-07-21T17:25:40;101479.81;;;20.62;100.00
51229;BME280;37304;52.216;6.874;2022-07-21T17:30:41;101485.19;;;20.42;100.00
51229;BME280;37304;52.216;6.874;2022-07-21T17:35:41;101483.63;;;20.37;100.00
51229;BME280;37304;52.216;6.874;2022-07-21T17:40:42;101491.56;;;20.37;100.00
51229;BME280;37304;52.216;6.874;2022-07-21T17:45:43;101488.94;;;20.18;100.00
51229;BME280;37304;52.216;6.874;2022-07-21T17:50:43;101493.00;;;20.06;100.00
51229;BME280;37304;52.216;6.874;2022-07-21T17:55:43;101489.41;;;20.07;100.00
51229;BME280;37304;52.216;6.874;2022-07-21T18:00:44;101488.00;;;20.00;100.00
51229;BME280;37304;52.216;6.874;2022-07-21T18:05:44;101486.13;;;20.02;100.00
51229;BME280;37304;52.216;6.874;2022-07-21T18:10:46;101493.13;;;20.03;100.00
51229;BME280;37304;52.216;6.874;2022-07-21T18:15:46;101501.97;;;20.02;100.00
51229;BME280;37304;52.216;6.874;2022-07-21T18:20:47;101500.41;;;19.98;100.00
51229;BME280;37304;52.216;6.874;2022-07-21T18:25:47;101500.25;;;20.01;100.00
51229;BME280;37304;52.216;6.874;2022-07-21T18:30:48;101506.06;;;19.89;100.00
51229;BME280;37304;52.216;6.874;2022-07-21T18:35:49;101507.00;;;19.88;100.00
51229;BME280;37304;52.216;6.874;2022-07-21T18:40:49;101513.66;;;19.76;100.00
51229;BME280;37304;52.216;6.874;2022-07-21T18:45:49;101515.75;;;19.69;100.00
51229;BME280;37304;52.216;6.874;2022-07-21T18:50:50;101522.72;;;19.70;100.00
51229;BME280;37304;52.216;6.874;2022-07-21T18:55:50;101515.22;;;19.61;100.00
51229;BME280;37304;52.216;6.874;2022-07-21T19:00:51;101521.81;;;19.71;100.00
51229;BME280;37304;52.216;6.874;2022-07-21T19:05:51;101527.28;;;19.67;100.00
51229;BME280;37304;52.216;6.874;2022-07-21T19:10:51;101527.34;;;19.65;100.00
51229;BME280;37304;52.216;6.874;2022-07-21T19:15:52;101537.13;;;19.63;100.00
51229;BME280;37304;52.216;6.874;2022-07-21T19:20:52;101549.44;;;19.42;100.00
51229;BME280;37304;52.216;6.874;2022-07-21T19:25:53;101566.22;;;19.39;100.00
51229;BME280;37304;52.216;6.874;2022-07-21T19:30:53;101580.22;;;19.19;100.00
51229;BME280;37304;52.216;6.874;2022-07-21T19:35:53;101584.16;;;19.09;100.00
51229;BME280;37304;52.216;6.874;2022-07-21T19:40:54;101594.91;;;18.80;100.00
51229;BME280;37304;52.216;6.874;2022-07-21T19:45:54;101613.03;;;18.66;100.00
51229;BME280;37304;52.216;6.874;2022-07-21T19:50:55;101621.31;;;18.32;100.00
51229;BME280;37304;52.216;6.874;2022-07-21T19:55:55;101640.25;;;18.17;100.00
51229;BME280;37304;52.216;6.874;2022-07-21T20:00:56;101646.06;;;18.01;100.00
51229;BME280;37304;52.216;6.874;2022-07-21T20:05:56;101663.84;;;17.93;100.00
51229;BME280;37304;52.216;6.874;2022-07-21T20:10:57;101672.13;;;17.55;100.00
51229;BME280;37304;52.216;6.874;2022-07-21T20:15:58;101669.63;;;17.51;100.00
51229;BME280;37304;52.216;6.874;2022-07-21T20:20:58;101673.56;;;17.37;100.00
51229;BME280;37304;52.216;6.874;2022-07-21T20:26:00;101681.53;;;17.36;100.00
51229;BME280;37304;52.216;6.874;2022-07-21T20:31:00;101692.97;;;17.33;100.00
51229;BME280;37304;52.216;6.874;2022-07-21T20:36:01;101691.31;;;17.30;100.00
51229;BME280;37304;52.216;6.874;2022-07-21T20:41:01;101690.75;;;17.19;100.00
51229;BME280;37304;52.216;6.874;2022-07-21T20:46:02;101694.47;;;17.13;100.00
51229;BME280;37304;52.216;6.874;2022-07-21T20:51:03;101687.59;;;17.09;100.00
51229;BME280;37304;52.216;6.874;2022-07-21T20:56:04;101705.09;;;17.09;100.00
51229;BME280;37304;52.216;6.874;2022-07-21T21:01:04;101706.81;;;17.10;100.00
51229;BME280;37304;52.216;6.874;2022-07-21T21:06:05;101710.69;;;16.98;100.00
51229;BME280;37304;52.216;6.874;2022-07-21T21:11:06;101715.88;;;16.99;100.00
51229;BME280;37304;52.216;6.874;2022-07-21T21:16:07;101718.72;;;16.92;100.00
51229;BME280;37304;52.216;6.874;2022-07-21T21:21:08;101723.28;;;16.85;100.00
51229;BME280;37304;52.216;6.874;2022-07-21T21:26:09;101714.44;;;16.87;100.00
51229;BME280;37304;52.216;6.874;2022-07-21T21:31:10;101718.97;;;16.82;100.00
51229;BME280;37304;52.216;6.874;2022-07-21T21:36:10;101723.63;;;16.72;100.00
51229;BME280;37304;52.216;6.874;2022-07-21T21:41:12;101728.19;;;16.66;100.00
51229;BME280;37304;52.216;6.874;2022-07-21T21:46:12;101740.69;;;16.56;100.00
51229;BME280;37304;52.216;6.874;2022-07-21T21:51:13;101741.91;;;16.44;100.00
51229;BME280;37304;52.216;6.874;2022-07-21T21:56:13;101739.84;;;16.55;100.00
51229;BME280;37304;52.216;6.874;2022-07-21T22:01:14;101755.69;;;16.51;100.00
51229;BME280;37304;52.216;6.874;2022-07-21T22:06:15;101755.75;;;16.49;100.00
51229;BME280;37304;52.216;6.874;2022-07-21T22:11:15;101748.91;;;16.43;100.00
51229;BME280;37304;52.216;6.874;2022-07-21T22:16:15;101753.66;;;16.29;100.00
51229;BME280;37304;52.216;6.874;2022-07-21T22:21:16;101759.59;;;16.36;100.00
51229;BME280;37304;52.216;6.874;2022-07-21T22:26:16;101763.25;;;16.30;100.00
51229;BME280;37304;52.216;6.874;2022-07-21T22:31:17;101765.16;;;16.23;100.00
51229;BME280;37304;52.216;6.874;2022-07-21T22:36:17;101769.47;;;16.26;100.00
51229;BME280;37304;52.216;6.874;2022-07-21T22:41:18;101776.53;;;16.22;100.00
51229;BME280;37304;52.216;6.874;2022-07-21T22:46:18;101772.09;;;16.26;100.00
51229;BME280;37304;52.216;6.874;2022-07-21T22:51:18;101771.16;;;16.28;100.00
51229;BME280;37304;52.216;6.874;2022-07-21T22:56:19;101771.25;;;16.25;100.00
51229;BME280;37304;52.216;6.874;2022-07-21T23:01:19;101769.56;;;16.23;100.00
51229;BME280;37304;52.216;6.874;2022-07-21T23:06:20;101771.25;;;16.25;100.00
51229;BME280;37304;52.216;6.874;2022-07-21T23:11:20;101764.31;;;16.21;100.00
51229;BME280;37304;52.216;6.874;2022-07-21T23:16:20;101762.75;;;16.14;100.00
51229;BME280;37304;52.216;6.874;2022-07-21T23:21:21;101766.13;;;16.19;100.00
51229;BME280;37304;52.216;6.874;2022-07-21T23:26:21;101764.50;;;16.15;100.00
51229;BME280;37304;52.216;6.874;2022-07-21T23:31:22;101763.63;;;16.14;100.00
51229;BME280;37304;52.216;6.874;2022-07-21T23:36:22;101775.84;;;16.15;100.00
51229;BME280;37304;52.216;6.874;2022-07-21T23:41:23;101776.69;;;16.16;100.00
51229;BME280;37304;52.216;6.874;2022-07-21T23:46:23;101781.56;;;15.97;100.00
51229;BME280;37304;52.216;6.874;2022-07-21T23:51:23;101786.81;;;15.95;100.00
51229;BME280;37304;52.216;6.874;2022-07-21T23:56:24;101792.06;;;15.95;100.00
